Geelong, Victoria

3:55 AM AEDT on October 26, 2014 (GMT +1100)
Thomson, Geelong | Change Station
CLOSE
Current Station
Personal Weather Station
Location: Thomson, VICTORIA
Elevation: 66 ft
Nearby Weather Stations

Elev 66 ft 38.17 °S, 144.37 °E | Updated 1 second ago

Mostly Cloudy
Mostly Cloudy
56.1 °F
Feels Like 56.1 °F
N
0.0
Wind Variable Wind from North
Gusts 4.7 mph

Today
High -- | Low -- °F
--% Chance of Precip.
Yesterday
High -- | Low -- °F
Precip. -- in
6:22 AM 7:51 PM
Waxing Crescent, 3% visible
Pressure 29.92 in
Visibility 6.2 miles
Clouds Mostly Cloudy 1500 ft
Dew Point 48 °F
Humidity 73%
Rainfall 0.00 in
Snow Depth Not available.
UV 0 out of 12
Pollen Not available.
Air Quality Not available.
Flu Activity Not available.
SPECI YMML 251636Z 18006KT 9999 BKN015 13/10 Q1013 NOSIG

More Conditions Fewer Conditions

Pressure 29.92 in
Visibility 6.2 miles
Clouds Mostly Cloudy 1500 ft
Dew Point 48 °F
Humidity 73%
Rainfall 0.00 in
Snow Depth Not available.
UV 0 out of 12
Pollen Not available.
Air Quality Not available.
Flu Activity Not available.
SPECI YMML 251636Z 18006KT 9999 BKN015 13/10 Q1013 NOSIG

More Conditions Fewer Conditions

10-Day Weather Forecast

Almanac

Astronomy

Oct. 26, 2014 Rise Set
Actual Time 6:22 AM AEDT 7:51 PM AEDT
Civil Twilight 5:55 AM AEDT 8:18 PM AEDT
Nautical Twilight 5:21 AM AEDT 8:52 PM AEDT
Astronomical Twilight 4:46 AM AEDT 9:27 PM AEDT
Moon 7:50 AM AEDT (10/26) 10:08 PM AEDT (10/26)
Length of Visible Light 14h 23m
Length of Day
13h 28m
Tomorrow will be 2m 19s longer.
Waxing Crescent, 3% of the Moon is Illuminated
Oct 25
Waxing Crescent
Oct 30
First Quarter
Nov 6
Full
Nov 14
Last Quarter
Nov 22
New

Yesterday's Extremes

Country Highs Country Lows

Community

WunderPhotos

Upload Photos

1,764,901 photos uploaded!

Nearby

Snow Depth

Not available.

Earthquake Activity

City Distance Mag. Time & Date
No recent earthquake activity has been reported nearby.
Minimum magnitude displayed is 2.5.

Coastal Water Temperatures

Place Temperature
No Stations Reporting

Nearby Weather Stations